createdAt,value
2017-01-15T00:00:24.810Z,1006.95
2017-01-15T00:01:29.036Z,1006.94
2017-01-15T00:03:39.417Z,1006.93
2017-01-15T00:04:45.579Z,1006.97
2017-01-15T00:05:51.754Z,1006.92
2017-01-15T00:06:57.007Z,1006.98
2017-01-15T00:08:01.191Z,1006.98
2017-01-15T00:09:06.386Z,1007
2017-01-15T00:10:11.576Z,1006.99
2017-01-15T00:11:17.740Z,1007.04
2017-01-15T00:12:21.952Z,1006.97
2017-01-15T00:13:27.119Z,1006.99
2017-01-15T00:15:37.504Z,1006.98
2017-01-15T00:16:43.695Z,1007.01
2017-01-15T00:17:49.830Z,1007.03
2017-01-15T00:18:53.127Z,1007
2017-01-15T00:19:59.292Z,1007.01
2017-01-15T00:21:05.454Z,1007.07
2017-01-15T00:22:10.656Z,1007.02
2017-01-15T00:23:15.863Z,1007.05
2017-01-15T00:24:21.062Z,1007.09
2017-01-15T00:25:26.246Z,1007.09
2017-01-15T00:26:31.414Z,1007.03
2017-01-15T00:27:37.579Z,1007.06
2017-01-15T00:28:43.744Z,1007.06
2017-01-15T00:29:48.939Z,1007.12
2017-01-15T00:30:55.110Z,1007.11
2017-01-15T00:32:01.278Z,1007.08
2017-01-15T00:33:07.438Z,1007.1
2017-01-15T00:34:12.637Z,1007.07
2017-01-15T00:35:18.824Z,1007.09
2017-01-15T00:36:23.056Z,1007.11
2017-01-15T00:37:29.234Z,1007.13
2017-01-15T00:38:35.405Z,1007.15
2017-01-15T00:39:41.565Z,1007.14
2017-01-15T00:40:45.761Z,1007.13
2017-01-15T00:41:51.924Z,1007.12
2017-01-15T00:42:57.172Z,1007.21
2017-01-15T00:44:02.336Z,1007.2
2017-01-15T00:45:08.558Z,1007.21
2017-01-15T00:46:12.718Z,1007.23
2017-01-15T00:47:17.881Z,1007.23
2017-01-15T00:48:24.053Z,1007.22
2017-01-15T00:49:29.259Z,1007.22
2017-01-15T00:50:34.465Z,1007.16
2017-01-15T00:51:40.599Z,1007.19
2017-01-15T00:52:45.760Z,1007.25
2017-01-15T00:53:50.038Z,1007.25
2017-01-15T00:54:53.311Z,1007.26
2017-01-15T00:55:57.536Z,1007.27
2017-01-15T00:57:02.732Z,1007.32
2017-01-15T00:58:08.893Z,1007.35
2017-01-15T00:59:13.090Z,1007.34
2017-01-15T01:00:18.011Z,1007.33
2017-01-15T01:01:23.201Z,1007.32
2017-01-15T01:02:29.365Z,1007.29
2017-01-15T01:03:35.521Z,1007.27
2017-01-15T01:04:39.769Z,1007.26
2017-01-15T01:05:45.951Z,1007.27
2017-01-15T01:06:50.175Z,1007.32
2017-01-15T01:07:55.369Z,1007.27
2017-01-15T01:09:01.531Z,1007.32
2017-01-15T01:10:06.764Z,1007.32
2017-01-15T01:11:12.894Z,1007.36
2017-01-15T01:12:19.159Z,1007.3
2017-01-15T01:13:23.391Z,1007.28
2017-01-15T01:14:29.554Z,1007.32
2017-01-15T01:15:35.710Z,1007.36
2017-01-15T01:16:41.875Z,1007.36
2017-01-15T01:17:46.149Z,1007.38
2017-01-15T01:18:52.322Z,1007.36
2017-01-15T01:19:58.479Z,1007.33
2017-01-15T01:21:03.668Z,1007.36
2017-01-15T01:22:09.841Z,1007.41
2017-01-15T01:23:15.033Z,1007.41
2017-01-15T01:24:20.251Z,1007.39
2017-01-15T01:25:26.412Z,1007.42
2017-01-15T01:26:32.584Z,1007.42
2017-01-15T01:27:37.853Z,1007.47
2017-01-15T01:28:43.062Z,1007.53
2017-01-15T01:29:48.248Z,1007.55
2017-01-15T01:30:54.430Z,1007.57
2017-01-15T01:31:59.601Z,1007.63
2017-01-15T01:33:04.793Z,1007.69
2017-01-15T01:34:08.109Z,1007.7
2017-01-15T01:35:12.303Z,1007.73
2017-01-15T01:36:16.541Z,1007.71
2017-01-15T01:37:22.849Z,1007.68
2017-01-15T01:38:28.035Z,1007.75
2017-01-15T01:39:34.212Z,1007.75
2017-01-15T01:40:40.379Z,1007.76
2017-01-15T01:41:46.657Z,1007.75
2017-01-15T01:42:49.849Z,1007.71
2017-01-15T01:43:56.015Z,1007.67
2017-01-15T01:45:01.210Z,1007.64
2017-01-15T01:46:07.386Z,1007.65
2017-01-15T01:47:13.548Z,1007.69
2017-01-15T01:48:18.748Z,1007.69
2017-01-15T01:49:24.917Z,1007.68
2017-01-15T01:50:30.091Z,1007.7
2017-01-15T01:51:34.323Z,1007.73
2017-01-15T01:52:39.542Z,1007.73
2017-01-15T01:53:44.743Z,1007.7
2017-01-15T01:54:49.933Z,1007.71
2017-01-15T01:55:55.119Z,1007.72
2017-01-15T01:57:01.389Z,1007.72
2017-01-15T01:58:05.582Z,1007.76
2017-01-15T01:59:11.757Z,1007.78
2017-01-15T02:00:16.970Z,1007.73
2017-01-15T02:01:21.183Z,1007.78
2017-01-15T02:02:27.345Z,1007.81
2017-01-15T02:03:32.544Z,1007.81
2017-01-15T02:04:37.786Z,1007.82
2017-01-15T02:05:43.044Z,1007.74
2017-01-15T02:06:48.255Z,1007.8
2017-01-15T02:07:53.441Z,1007.75
2017-01-15T02:08:59.600Z,1007.79
2017-01-15T02:10:05.773Z,1007.79
2017-01-15T02:11:10.966Z,1007.87
2017-01-15T02:12:17.130Z,1007.85
2017-01-15T02:13:21.335Z,1007.85
2017-01-15T02:14:26.527Z,1007.81
2017-01-15T02:15:32.698Z,1007.81
2017-01-15T02:16:38.854Z,1007.84
2017-01-15T02:17:45.155Z,1007.81
2017-01-15T02:18:49.494Z,1007.83
2017-01-15T02:19:54.700Z,1007.85
2017-01-15T02:20:59.945Z,1007.78
2017-01-15T02:22:05.103Z,1007.81
2017-01-15T02:23:10.293Z,1007.81
2017-01-15T02:24:16.459Z,1007.77
2017-01-15T02:25:21.662Z,1007.78
2017-01-15T02:26:26.856Z,1007.8
2017-01-15T02:27:32.099Z,1007.8
2017-01-15T02:28:34.413Z,1007.84
2017-01-15T02:29:40.544Z,1007.82
2017-01-15T02:30:46.068Z,1007.87
2017-01-15T02:31:51.264Z,1007.87
2017-01-15T02:32:55.517Z,1007.87
2017-01-15T02:34:01.706Z,1007.85
2017-01-15T02:35:07.871Z,1007.87
2017-01-15T02:36:11.124Z,1007.9
2017-01-15T02:37:16.314Z,1007.87
2017-01-15T02:38:20.525Z,1007.89
2017-01-15T02:39:26.831Z,1007.91
2017-01-15T02:40:32.027Z,1007.94
2017-01-15T02:41:36.251Z,1007.92
2017-01-15T02:42:39.515Z,1007.88
2017-01-15T02:43:43.798Z,1007.93
2017-01-15T02:44:48.925Z,1007.93
2017-01-15T02:45:55.198Z,1007.89
2017-01-15T02:47:00.400Z,1007.84
2017-01-15T02:48:05.581Z,1007.83
2017-01-15T02:49:10.754Z,1007.87
2017-01-15T02:50:15.929Z,1007.87
2017-01-15T02:51:22.131Z,1007.91
2017-01-15T02:52:26.839Z,1007.91
2017-01-15T02:53:33.171Z,1007.92
2017-01-15T02:54:39.333Z,1007.91
2017-01-15T02:55:45.491Z,1007.92
2017-01-15T02:56:50.703Z,1007.93
2017-01-15T02:57:55.875Z,1007.93
2017-01-15T02:59:00.105Z,1007.92
2017-01-15T03:00:05.269Z,1007.89
2017-01-15T03:01:11.474Z,1007.91
2017-01-15T03:02:17.634Z,1007.92
2017-01-15T03:03:20.901Z,1007.87
2017-01-15T03:04:26.098Z,1007.93
2017-01-15T03:05:32.255Z,1007.95
2017-01-15T03:06:36.501Z,1007.98
2017-01-15T03:07:40.694Z,1008.02
2017-01-15T03:08:46.868Z,1008.02
2017-01-15T03:09:52.067Z,1007.96
2017-01-15T03:10:55.302Z,1007.97
2017-01-15T03:12:01.468Z,1008.02
2017-01-15T03:13:05.668Z,1008.07
2017-01-15T03:14:10.860Z,1008.05
2017-01-15T03:15:15.088Z,1008.07
2017-01-15T03:16:21.246Z,1008.1
2017-01-15T03:17:25.450Z,1008.13
2017-01-15T03:18:30.662Z,1008.1
2017-01-15T03:19:35.845Z,1008.06
2017-01-15T03:20:41.065Z,1008.05
2017-01-15T03:21:47.241Z,1008.01
2017-01-15T03:22:53.408Z,1008.04
2017-01-15T03:23:57.644Z,1008.08
2017-01-15T03:25:02.836Z,1008.1
2017-01-15T03:26:08.031Z,1008.12
2017-01-15T03:27:12.351Z,1008.13
2017-01-15T03:28:18.485Z,1008.12
2017-01-15T03:29:24.648Z,1008.15
2017-01-15T03:30:29.877Z,1008.21
2017-01-15T03:31:35.008Z,1008.17
2017-01-15T03:32:39.206Z,1008.19
2017-01-15T03:33:44.454Z,1008.22
2017-01-15T03:34:49.642Z,1008.17
2017-01-15T03:35:53.877Z,1008.2
2017-01-15T03:36:58.101Z,1008.2
2017-01-15T03:38:03.292Z,1008.18
2017-01-15T03:39:08.492Z,1008.19
2017-01-15T03:40:13.681Z,1008.19
2017-01-15T03:41:18.878Z,1008.16
2017-01-15T03:42:24.042Z,1008.17
2017-01-15T03:43:29.267Z,1008.18
2017-01-15T03:44:33.451Z,1008.13
2017-01-15T03:45:39.608Z,1008.18
2017-01-15T03:46:45.775Z,1008.18
2017-01-15T03:47:50.960Z,1008.21
2017-01-15T03:48:57.125Z,1008.2
2017-01-15T03:50:03.293Z,1008.23
2017-01-15T03:51:08.490Z,1008.25
2017-01-15T03:52:14.667Z,1008.27
2017-01-15T03:53:19.830Z,1008.26
2017-01-15T03:54:24.808Z,1008.28
2017-01-15T03:55:30.969Z,1008.27
2017-01-15T03:56:37.138Z,1008.31
2017-01-15T03:57:42.353Z,1008.33
2017-01-15T03:58:47.533Z,1008.27
2017-01-15T03:59:53.700Z,1008.31
2017-01-15T04:00:58.070Z,1008.34
2017-01-15T04:02:04.231Z,1008.33
2017-01-15T04:03:10.412Z,1008.36
2017-01-15T04:04:15.612Z,1008.38
2017-01-15T04:05:19.822Z,1008.37
2017-01-15T04:06:25.985Z,1008.36
2017-01-15T04:07:31.155Z,1008.39
2017-01-15T04:08:36.360Z,1008.44
2017-01-15T04:09:42.519Z,1008.46
2017-01-15T04:10:46.753Z,1008.45
2017-01-15T04:11:52.921Z,1008.51
2017-01-15T04:12:59.087Z,1008.49
2017-01-15T04:14:05.251Z,1008.48
2017-01-15T04:15:09.444Z,1008.51
2017-01-15T04:16:12.723Z,1008.48
2017-01-15T04:17:17.932Z,1008.52
2017-01-15T04:18:23.204Z,1008.57
2017-01-15T04:19:28.404Z,1008.56
2017-01-15T04:20:34.615Z,1008.64
2017-01-15T04:21:39.761Z,1008.6
2017-01-15T04:22:45.925Z,1008.6
2017-01-15T04:23:52.084Z,1008.56
2017-01-15T04:24:57.324Z,1008.57
2017-01-15T04:26:02.536Z,1008.59
2017-01-15T04:27:08.821Z,1008.57
2017-01-15T04:28:12.956Z,1008.6
2017-01-15T04:29:19.119Z,1008.55
2017-01-15T04:30:25.283Z,1008.59
2017-01-15T04:31:30.478Z,1008.6
2017-01-15T04:32:34.675Z,1008.69
2017-01-15T04:33:38.875Z,1008.74
2017-01-15T04:34:44.102Z,1008.7
2017-01-15T04:35:49.264Z,1008.66
2017-01-15T04:36:53.515Z,1008.67
2017-01-15T04:37:58.820Z,1008.69
2017-01-15T04:39:04.020Z,1008.71
2017-01-15T04:40:10.197Z,1008.63
2017-01-15T04:41:13.453Z,1008.68
2017-01-15T04:42:19.612Z,1008.72
2017-01-15T04:43:25.804Z,1008.71
2017-01-15T04:44:32.055Z,1008.69
2017-01-15T04:45:37.258Z,1008.71
2017-01-15T04:46:41.497Z,1008.73
2017-01-15T04:47:47.658Z,1008.73
2017-01-15T04:48:52.858Z,1008.73
2017-01-15T04:49:59.182Z,1008.76
2017-01-15T04:51:04.463Z,1008.76
2017-01-15T04:52:09.669Z,1008.83
2017-01-15T04:53:14.909Z,1008.92
2017-01-15T04:54:19.132Z,1008.9
2017-01-15T04:55:25.298Z,1008.86
2017-01-15T04:56:31.467Z,1008.92
2017-01-15T04:57:37.632Z,1008.88
2017-01-15T04:58:42.799Z,1008.89
2017-01-15T04:59:48.071Z,1008.91
2017-01-15T05:00:53.262Z,1008.9
2017-01-15T05:01:58.462Z,1008.98
2017-01-15T05:03:03.646Z,1008.93
2017-01-15T05:04:08.905Z,1008.95
2017-01-15T05:05:14.099Z,1009.02
2017-01-15T05:06:20.264Z,1008.98
2017-01-15T05:07:25.459Z,1008.96
2017-01-15T05:08:28.699Z,1008.99
2017-01-15T05:09:34.841Z,1008.98
2017-01-15T05:10:40.037Z,1008.97
2017-01-15T05:11:45.228Z,1008.94
2017-01-15T05:12:51.513Z,1008.96
2017-01-15T05:13:55.716Z,1008.97
2017-01-15T05:16:06.094Z,1008.97
2017-01-15T05:17:11.294Z,1008.97
2017-01-15T05:18:17.455Z,1009
2017-01-15T05:19:21.702Z,1009.03
2017-01-15T05:20:27.861Z,1009.07
2017-01-15T05:21:33.059Z,1009.11
2017-01-15T05:22:38.257Z,1009.09
2017-01-15T05:23:41.636Z,1009.06
2017-01-15T05:24:46.816Z,1009.12
2017-01-15T05:25:52.979Z,1009.09
2017-01-15T05:26:59.137Z,1009.12
2017-01-15T05:28:05.305Z,1009.12
2017-01-15T05:29:11.467Z,1009.13
2017-01-15T05:30:15.684Z,1009.18
2017-01-15T05:31:18.909Z,1009.19
2017-01-15T05:32:25.169Z,1009.18
2017-01-15T05:33:30.424Z,1009.21
2017-01-15T05:34:36.541Z,1009.18
2017-01-15T05:35:41.712Z,1009.14
2017-01-15T05:36:45.958Z,1009.12
2017-01-15T05:37:52.118Z,1009.19
2017-01-15T05:38:58.283Z,1009.22
2017-01-15T05:40:03.485Z,1009.19
2017-01-15T05:41:08.677Z,1009.22
2017-01-15T05:42:12.906Z,1009.22
2017-01-15T05:43:18.097Z,1009.22
2017-01-15T05:44:23.401Z,1009.22
2017-01-15T05:45:28.591Z,1009.17
2017-01-15T05:46:33.782Z,1009.22
2017-01-15T05:47:38.976Z,1009.26
2017-01-15T05:48:44.167Z,1009.3
2017-01-15T05:49:48.394Z,1009.32
2017-01-15T05:50:53.572Z,1009.3
2017-01-15T05:51:58.816Z,1009.29
2017-01-15T05:53:04.931Z,1009.3
2017-01-15T05:54:11.083Z,1009.29
2017-01-15T05:55:16.284Z,1009.28
2017-01-15T05:56:22.444Z,1009.31
2017-01-15T05:57:28.606Z,1009.28
2017-01-15T05:58:34.800Z,1009.29
2017-01-15T05:59:39.929Z,1009.26
2017-01-15T06:00:46.088Z,1009.3
2017-01-15T06:01:51.265Z,1009.27
2017-01-15T06:02:56.433Z,1009.31
2017-01-15T06:04:00.667Z,1009.26
2017-01-15T06:05:05.975Z,1009.32
2017-01-15T06:06:12.124Z,1009.32
2017-01-15T06:07:14.393Z,1009.32
2017-01-15T06:08:20.569Z,1009.29
2017-01-15T06:09:26.728Z,1009.3
2017-01-15T06:10:31.892Z,1009.29
2017-01-15T06:11:36.197Z,1009.3
2017-01-15T06:12:41.003Z,1009.3
2017-01-15T06:13:47.178Z,1009.29
2017-01-15T06:14:53.339Z,1009.3
2017-01-15T06:15:59.508Z,1009.32
2017-01-15T06:17:04.673Z,1009.34
2017-01-15T06:18:10.376Z,1009.34
2017-01-15T06:19:15.567Z,1009.35
2017-01-15T06:20:20.765Z,1009.35
2017-01-15T06:21:27.125Z,1009.39
2017-01-15T06:22:31.332Z,1009.38
2017-01-15T06:23:34.607Z,1009.41
2017-01-15T06:24:39.790Z,1009.44
2017-01-15T06:25:43.047Z,1009.48
2017-01-15T06:26:48.241Z,1009.52
2017-01-15T06:27:51.514Z,1009.52
2017-01-15T06:28:57.671Z,1009.54
2017-01-15T06:30:02.938Z,1009.56
2017-01-15T06:31:07.166Z,1009.64
2017-01-15T06:32:11.394Z,1009.66
2017-01-15T06:33:17.556Z,1009.69
2017-01-15T06:34:23.722Z,1009.68
2017-01-15T06:35:28.889Z,1009.69
2017-01-15T06:36:33.139Z,1009.75
2017-01-15T06:37:39.300Z,1009.8
2017-01-15T06:38:43.526Z,1009.78
2017-01-15T06:39:47.721Z,1009.76
2017-01-15T06:40:52.935Z,1009.79
2017-01-15T06:41:58.132Z,1009.77
2017-01-15T06:43:01.468Z,1009.84
2017-01-15T06:44:05.703Z,1009.85
2017-01-15T06:45:10.899Z,1009.91
2017-01-15T06:46:16.095Z,1009.95
2017-01-15T06:47:22.246Z,1009.93
2017-01-15T06:48:27.440Z,1009.95
2017-01-15T06:49:32.639Z,1009.97
2017-01-15T06:50:37.836Z,1009.99
2017-01-15T06:51:43.996Z,1010
2017-01-15T06:52:49.190Z,1010.04
2017-01-15T06:53:55.416Z,1010.02
2017-01-15T06:55:00.611Z,1010.03
2017-01-15T06:56:06.782Z,1010.01
2017-01-15T06:57:11.007Z,1010.03
2017-01-15T06:58:17.179Z,1010.01
2017-01-15T06:59:22.384Z,1010.05
2017-01-15T07:00:26.611Z,1010.01
2017-01-15T07:01:31.816Z,1010.05
2017-01-15T07:02:37.011Z,1010.08
2017-01-15T07:03:42.210Z,1010.08
2017-01-15T07:04:46.409Z,1010.1
2017-01-15T07:05:50.639Z,1010.09
2017-01-15T07:06:56.807Z,1010.16
2017-01-15T07:08:01.116Z,1010.18
2017-01-15T07:09:05.435Z,1010.15
2017-01-15T07:10:10.635Z,1010.16
2017-01-15T07:12:21.992Z,1010.11
2017-01-15T07:13:27.192Z,1010.13
2017-01-15T07:14:32.735Z,1010.15
2017-01-15T07:15:36.013Z,1010.14
2017-01-15T07:16:42.184Z,1010.16
2017-01-15T07:17:48.344Z,1010.22
2017-01-15T07:18:54.512Z,1010.24
2017-01-15T07:19:59.679Z,1010.22
2017-01-15T07:21:05.884Z,1010.22
2017-01-15T07:22:12.060Z,1010.23
2017-01-15T07:23:17.226Z,1010.25
2017-01-15T07:24:21.591Z,1010.23
2017-01-15T07:25:27.764Z,1010.19
2017-01-15T07:26:33.921Z,1010.25
2017-01-15T07:27:38.118Z,1010.21
2017-01-15T07:28:43.323Z,1010.22
2017-01-15T07:29:48.516Z,1010.23
2017-01-15T07:30:52.723Z,1010.19
2017-01-15T07:31:56.924Z,1010.2
2017-01-15T07:33:03.124Z,1010.23
2017-01-15T07:34:08.279Z,1010.22
2017-01-15T07:35:13.561Z,1010.23
2017-01-15T07:36:19.748Z,1010.22
2017-01-15T07:37:23.952Z,1010.21
2017-01-15T07:38:29.142Z,1010.27
2017-01-15T07:39:34.354Z,1010.28
2017-01-15T07:40:40.518Z,1010.31
2017-01-15T07:41:44.746Z,1010.29
2017-01-15T07:42:49.956Z,1010.3
2017-01-15T07:43:56.140Z,1010.32
2017-01-15T07:45:01.333Z,1010.32
2017-01-15T07:46:07.500Z,1010.33
2017-01-15T07:47:12.712Z,1010.38
2017-01-15T07:48:18.881Z,1010.34
2017-01-15T07:49:23.112Z,1010.39
2017-01-15T07:50:27.402Z,1010.39
2017-01-15T07:51:33.556Z,1010.41
2017-01-15T07:52:38.758Z,1010.4
2017-01-15T07:53:43.947Z,1010.46
2017-01-15T07:54:50.116Z,1010.42
2017-01-15T07:55:56.284Z,1010.44
2017-01-15T07:57:01.504Z,1010.49
2017-01-15T07:58:06.698Z,1010.47
2017-01-15T07:59:11.867Z,1010.47
2017-01-15T08:00:17.061Z,1010.46
2017-01-15T08:01:23.256Z,1010.47
2017-01-15T08:02:28.450Z,1010.47
2017-01-15T08:03:33.772Z,1010.51
2017-01-15T08:04:37.009Z,1010.5
2017-01-15T08:05:41.238Z,1010.54
2017-01-15T08:06:46.437Z,1010.5
2017-01-15T08:07:51.633Z,1010.57
2017-01-15T08:08:56.832Z,1010.53
2017-01-15T08:10:01.053Z,1010.49
2017-01-15T08:11:06.247Z,1010.58
2017-01-15T08:12:12.526Z,1010.58
2017-01-15T08:13:18.690Z,1010.61
2017-01-15T08:14:22.935Z,1010.61
2017-01-15T08:15:29.109Z,1010.65
2017-01-15T08:16:35.281Z,1010.65
2017-01-15T08:17:40.473Z,1010.71
2017-01-15T08:18:45.642Z,1010.67
2017-01-15T08:19:50.838Z,1010.64
2017-01-15T08:20:55.063Z,1010.67
2017-01-15T08:22:01.231Z,1010.66
2017-01-15T08:23:06.407Z,1010.65
2017-01-15T08:24:11.592Z,1010.66
2017-01-15T08:25:17.758Z,1010.71
2017-01-15T08:26:22.928Z,1010.69
2017-01-15T08:27:28.128Z,1010.65
2017-01-15T08:28:32.427Z,1010.6
2017-01-15T08:29:37.701Z,1010.6
2017-01-15T08:30:42.902Z,1010.59
2017-01-15T08:31:49.067Z,1010.63
2017-01-15T08:32:54.265Z,1010.68
2017-01-15T08:33:59.528Z,1010.78
2017-01-15T08:35:05.811Z,1010.72
2017-01-15T08:36:11.969Z,1010.74
2017-01-15T08:37:17.279Z,1010.72
2017-01-15T08:38:22.480Z,1010.71
2017-01-15T08:39:28.741Z,1010.76
2017-01-15T08:40:33.919Z,1010.72
2017-01-15T08:41:39.111Z,1010.75
2017-01-15T08:42:44.318Z,1010.75
2017-01-15T08:43:49.504Z,1010.78
2017-01-15T08:44:55.748Z,1010.77
2017-01-15T08:45:59.950Z,1010.82
2017-01-15T08:47:04.223Z,1010.85
2017-01-15T08:48:10.351Z,1010.82
2017-01-15T08:49:15.600Z,1010.89
2017-01-15T08:50:20.805Z,1010.96
2017-01-15T08:51:25.030Z,1010.96
2017-01-15T08:52:31.202Z,1010.95
2017-01-15T08:53:36.477Z,1011.03
2017-01-15T08:54:40.579Z,1011.03
2017-01-15T08:55:46.797Z,1011.1
2017-01-15T08:56:51.975Z,1011.07
2017-01-15T08:57:58.215Z,1011.14
2017-01-15T08:59:04.382Z,1011.16
2017-01-15T09:00:07.652Z,1011.21
2017-01-15T09:01:12.853Z,1011.18
2017-01-15T09:02:18.058Z,1011.19
2017-01-15T09:03:24.228Z,1011.22
2017-01-15T09:04:29.437Z,1011.27
2017-01-15T09:05:34.618Z,1011.29
2017-01-15T09:06:38.951Z,1011.26
2017-01-15T09:07:44.120Z,1011.22
2017-01-15T09:08:50.286Z,1011.21
2017-01-15T09:09:56.445Z,1011.18
2017-01-15T09:11:02.688Z,1011.17
2017-01-15T09:12:08.875Z,1011.13
2017-01-15T09:13:14.071Z,1011.14
2017-01-15T09:14:20.248Z,1011.07
2017-01-15T09:15:25.448Z,1011.09
2017-01-15T09:16:30.660Z,1011.06
2017-01-15T09:17:35.831Z,1011.13
2017-01-15T09:18:40.057Z,1011.15
2017-01-15T09:19:46.244Z,1011.17
2017-01-15T09:20:51.447Z,1011.15
2017-01-15T09:21:57.609Z,1011.21
2017-01-15T09:23:03.791Z,1011.16
2017-01-15T09:24:10.017Z,1011.14
2017-01-15T09:25:15.220Z,1011.15
2017-01-15T09:26:21.392Z,1011.15
2017-01-15T09:27:26.588Z,1011.15
2017-01-15T09:28:31.785Z,1011.18
2017-01-15T09:29:37.951Z,1011.23
2017-01-15T09:30:44.134Z,1011.31
2017-01-15T09:31:50.300Z,1011.32
2017-01-15T09:32:55.500Z,1011.2
2017-01-15T09:34:00.699Z,1011.34
2017-01-15T09:35:06.885Z,1011.32
2017-01-15T09:36:12.243Z,1011.24
2017-01-15T09:37:18.407Z,1011.25
2017-01-15T09:38:22.646Z,1011.35
2017-01-15T09:39:27.856Z,1011.25
2017-01-15T09:40:32.139Z,1011.21
2017-01-15T09:41:35.378Z,1011.24
2017-01-15T09:42:41.552Z,1011.25
2017-01-15T09:43:47.738Z,1011.28
2017-01-15T09:44:52.945Z,1011.43
2017-01-15T09:45:57.185Z,1011.43
2017-01-15T09:47:02.445Z,1011.33
2017-01-15T09:48:06.700Z,1011.33
2017-01-15T09:49:12.826Z,1011.49
2017-01-15T09:50:19.009Z,1011.4
2017-01-15T09:51:25.223Z,1011.4
2017-01-15T09:52:29.473Z,1011.37
2017-01-15T09:53:34.644Z,1011.44
2017-01-15T09:54:40.842Z,1011.37
2017-01-15T09:55:46.034Z,1011.41
2017-01-15T09:56:51.252Z,1011.43
2017-01-15T09:57:57.129Z,1011.43
2017-01-15T09:59:02.393Z,1011.43
2017-01-15T10:00:08.528Z,1011.43
2017-01-15T10:01:13.735Z,1011.46
2017-01-15T10:02:18.059Z,1011.43
2017-01-15T10:03:24.188Z,1011.4
2017-01-15T10:04:29.469Z,1011.46
2017-01-15T10:05:35.642Z,1011.4
2017-01-15T10:06:41.856Z,1011.42
2017-01-15T10:07:47.994Z,1011.4
2017-01-15T10:08:54.209Z,1011.44
2017-01-15T10:10:00.353Z,1011.39
2017-01-15T10:11:03.685Z,1011.36
2017-01-15T10:12:08.888Z,1011.4
2017-01-15T10:13:14.114Z,1011.36
2017-01-15T10:14:19.326Z,1011.41
2017-01-15T10:15:24.533Z,1011.43
2017-01-15T10:16:30.719Z,1011.39
2017-01-15T10:17:33.999Z,1011.4
2017-01-15T10:18:40.186Z,1011.4
2017-01-15T10:19:44.430Z,1011.44
2017-01-15T10:20:49.603Z,1011.45
2017-01-15T10:21:53.878Z,1011.43
2017-01-15T10:22:59.106Z,1011.41
2017-01-15T10:24:04.324Z,1011.43
2017-01-15T10:25:07.700Z,1011.45
2017-01-15T10:26:13.915Z,1011.49
2017-01-15T10:27:20.054Z,1011.43
2017-01-15T10:28:25.310Z,1011.4
2017-01-15T10:29:30.508Z,1011.43
2017-01-15T10:30:36.696Z,1011.43
2017-01-15T10:31:41.941Z,1011.47
2017-01-15T10:32:47.215Z,1011.45
2017-01-15T10:33:51.515Z,1011.51
2017-01-15T10:34:55.758Z,1011.49
2017-01-15T10:36:01.898Z,1011.54
2017-01-15T10:37:07.104Z,1011.57
2017-01-15T10:38:10.349Z,1011.57
2017-01-15T10:39:16.540Z,1011.55
2017-01-15T10:40:22.061Z,1011.58
2017-01-15T10:41:27.273Z,1011.49
2017-01-15T10:42:32.481Z,1011.55
2017-01-15T10:43:38.662Z,1011.56
2017-01-15T10:44:42.952Z,1011.56
2017-01-15T10:45:49.085Z,1011.54
2017-01-15T10:46:55.284Z,1011.56
2017-01-15T10:47:59.532Z,1011.6
2017-01-15T10:49:04.747Z,1011.64
2017-01-15T10:50:08.010Z,1011.61
2017-01-15T10:51:13.190Z,1011.67
2017-01-15T10:52:18.401Z,1011.68
2017-01-15T10:53:22.609Z,1011.64
2017-01-15T10:54:26.931Z,1011.68
2017-01-15T10:55:32.149Z,1011.62
2017-01-15T10:56:38.332Z,1011.63
2017-01-15T10:57:44.515Z,1011.6
2017-01-15T10:58:50.791Z,1011.55
2017-01-15T10:59:55.965Z,1011.56
2017-01-15T11:01:01.175Z,1011.57
2017-01-15T11:02:04.436Z,1011.58
2017-01-15T11:03:09.622Z,1011.58
2017-01-15T11:04:14.650Z,1011.63
2017-01-15T11:05:19.823Z,1011.62
2017-01-15T11:06:25.066Z,1011.58
2017-01-15T11:07:30.278Z,1011.66
2017-01-15T11:08:34.445Z,1011.65
2017-01-15T11:09:39.619Z,1011.69
2017-01-15T11:10:45.789Z,1011.65
2017-01-15T11:11:51.964Z,1011.64
2017-01-15T11:12:57.279Z,1011.63
2017-01-15T11:14:00.662Z,1011.64
2017-01-15T11:15:05.871Z,1011.62
2017-01-15T11:16:12.093Z,1011.57
2017-01-15T11:17:17.288Z,1011.63
2017-01-15T11:18:23.460Z,1011.63
2017-01-15T11:19:27.673Z,1011.62
2017-01-15T11:20:31.877Z,1011.57
2017-01-15T11:21:38.041Z,1011.63
2017-01-15T11:22:43.260Z,1011.63
2017-01-15T11:23:49.434Z,1011.64
2017-01-15T11:24:53.671Z,1011.64
2017-01-15T11:25:57.917Z,1011.67
2017-01-15T11:27:02.122Z,1011.69
2017-01-15T11:28:08.287Z,1011.65
2017-01-15T11:29:14.464Z,1011.68
2017-01-15T11:30:19.667Z,1011.67
2017-01-15T11:31:23.883Z,1011.65
2017-01-15T11:32:28.093Z,1011.67
2017-01-15T11:33:34.262Z,1011.59
2017-01-15T11:34:39.461Z,1011.64
2017-01-15T11:35:45.009Z,1011.64
2017-01-15T11:36:50.585Z,1011.61
2017-01-15T11:37:55.791Z,1011.58
2017-01-15T11:39:01.973Z,1011.6
2017-01-15T11:40:06.265Z,1011.63
2017-01-15T11:41:10.435Z,1011.64
2017-01-15T11:42:15.637Z,1011.67
2017-01-15T11:43:20.813Z,1011.67
2017-01-15T11:44:25.085Z,1011.7
2017-01-15T11:45:30.965Z,1011.72
2017-01-15T11:46:36.166Z,1011.65
2017-01-15T11:47:42.344Z,1011.68
2017-01-15T11:48:47.522Z,1011.68
2017-01-15T11:49:52.723Z,1011.69
2017-01-15T11:50:57.047Z,1011.73
2017-01-15T11:52:02.340Z,1011.7
2017-01-15T11:53:08.519Z,1011.71
2017-01-15T11:54:13.729Z,1011.71
2017-01-15T11:55:19.897Z,1011.76
2017-01-15T11:56:25.103Z,1011.77
2017-01-15T11:57:30.327Z,1011.74
2017-01-15T11:58:36.506Z,1011.78
2017-01-15T11:59:41.720Z,1011.72
2017-01-15T12:00:46.935Z,1011.74
2017-01-15T12:01:53.101Z,1011.78
2017-01-15T12:02:57.336Z,1011.75
2017-01-15T12:04:02.608Z,1011.77
2017-01-15T12:05:08.811Z,1011.79
2017-01-15T12:06:14.082Z,1011.79
2017-01-15T12:07:19.290Z,1011.83
2017-01-15T12:08:24.466Z,1011.83
2017-01-15T12:09:30.639Z,1011.8
2017-01-15T12:10:35.852Z,1011.8
2017-01-15T12:11:40.070Z,1011.78
2017-01-15T12:12:45.274Z,1011.81
2017-01-15T12:13:51.442Z,1011.79
2017-01-15T12:14:56.654Z,1011.78
2017-01-15T12:16:01.853Z,1011.81
2017-01-15T12:17:07.050Z,1011.79
2017-01-15T12:18:12.258Z,1011.78
2017-01-15T12:19:17.516Z,1011.82
2017-01-15T12:20:21.776Z,1011.82
2017-01-15T12:21:26.980Z,1011.81
2017-01-15T12:22:31.186Z,1011.83
2017-01-15T12:23:37.387Z,1011.85
2017-01-15T12:24:42.605Z,1011.81
2017-01-15T12:25:48.805Z,1011.82
2017-01-15T12:26:53.998Z,1011.78
2017-01-15T12:28:00.166Z,1011.8
2017-01-15T12:29:04.477Z,1011.8
2017-01-15T12:30:08.617Z,1011.81
2017-01-15T12:31:13.857Z,1011.81
2017-01-15T12:32:19.071Z,1011.84
2017-01-15T12:33:25.241Z,1011.84
2017-01-15T12:34:30.440Z,1011.85
2017-01-15T12:35:36.645Z,1011.83
2017-01-15T12:36:42.807Z,1011.85
2017-01-15T12:37:48.980Z,1011.84
2017-01-15T12:38:53.960Z,1011.85
2017-01-15T12:40:00.142Z,1011.87
2017-01-15T12:41:05.334Z,1011.83
2017-01-15T12:42:10.503Z,1011.87
2017-01-15T12:43:15.708Z,1011.86
2017-01-15T12:44:21.920Z,1011.82
2017-01-15T12:45:27.091Z,1011.83
2017-01-15T12:46:31.304Z,1011.81
2017-01-15T12:47:36.498Z,1011.82
2017-01-15T12:48:42.692Z,1011.9
2017-01-15T12:49:48.862Z,1011.87
2017-01-15T12:50:54.071Z,1011.91
2017-01-15T12:52:00.231Z,1011.94
2017-01-15T12:53:06.446Z,1011.94
2017-01-15T12:54:11.625Z,1011.92
2017-01-15T12:55:15.827Z,1011.95
2017-01-15T12:56:21.029Z,1011.93
2017-01-15T12:57:25.270Z,1011.94
2017-01-15T12:58:31.440Z,1011.94
2017-01-15T12:59:36.721Z,1011.91
2017-01-15T13:00:41.853Z,1011.93
2017-01-15T13:01:47.063Z,1011.91
2017-01-15T13:02:52.270Z,1011.94
2017-01-15T13:03:57.500Z,1011.94
2017-01-15T13:05:01.725Z,1011.9
2017-01-15T13:06:07.896Z,1011.91
2017-01-15T13:07:14.069Z,1011.91
2017-01-15T13:08:19.268Z,1011.9
2017-01-15T13:09:24.486Z,1011.91
2017-01-15T13:10:28.681Z,1011.91
2017-01-15T13:11:33.875Z,1011.9
2017-01-15T13:12:39.070Z,1011.92
2017-01-15T13:13:43.267Z,1011.93
2017-01-15T13:14:49.477Z,1011.91
2017-01-15T13:15:53.716Z,1011.9
2017-01-15T13:16:59.914Z,1011.96